Accueil
METAR-TAF:

METAR-TAF

Aéroports :

Base aérienne 116 Luxeuil-Saint Sauveur

Luxeuil-les-Bains, France

latitude: 47-47N, longitude: 006-21E, altitude: 278 m

Observation

Le bulletin a été fait il y a 12 minutes, à 20:00 UTC
Vent 3 kt de direction variable
Température 20°C
Humidité 88%
Pression 1016 hPa
Visibilité 10 km ou plus
Nuages épars à une hauteur de 3900 ft
Nuages épars à une hauteur de 6200 ft
Nuages fragmentés à une hauteur de 7200 ft

METAR: LFSX 142000Z AUTO VRB03KT 9999 SCT039 SCT062 BKN072 20/18 Q1016

Heure: 22:12 (20:12 UTC)


TAF: absent

Observations et prévisions météorologiques de plus de 4000 aéroports (messages METAR et TAF).

Les stations disponibles sont représentées par des disques jaunes et rouges sur la carte.

Passer la souris dessus pour voir le nom de la station.

Cliquer dessus pour voir les observations et prévisions météorologiques.

Pour changer de carte: cliquez sur les boutons verts avec une croix noire pour zoomer, sur le bouton vert avec un tiret pour effectuer un zoom arrière, ou sur les flèches vertes pour les cartes adjacentes.


METAR-TAF: